Time;durP1;ratioP1;P1;durP2;ratioP2;P2;SDS_P1;SDS_P2;PMS_P1;PMS_P2;Temp;Humidity;BMP_temperature;BMP_pressure;BME280_temperature;BME280_humidity;BME280_pressure;Samples;Min_cycle;Max_cycle;Signal;HPM_P1;HPM_P2
2023/09/23 00:02:09;;;;;;;;;;;;;;;12.50;100.00;100693.13;4998848;28;19917;-77
2023/09/23 00:04:35;;;;;;;;;;;;;;;12.49;100.00;100689.63;4997282;28;19914;-77
2023/09/23 00:07:01;;;;;;;;;;;;;;;12.52;100.00;100691.25;5006783;28;19965;-77
2023/09/23 00:09:27;;;;;;;;;;;;;;;12.52;100.00;100686.00;5001657;28;19913;-77
2023/09/23 00:11:52;;;;;;;;;;;;;;;12.52;100.00;100682.53;4996960;28;19956;-77
2023/09/23 00:14:17;;;;;;;;;;;;;;;12.47;100.00;100683.59;4998162;28;19917;-77
2023/09/23 00:16:46;;;;;;;;;;;;;;;12.46;100.00;100687.16;5015027;28;19980;-77
2023/09/23 00:19:12;;;;;;;;;;;;;;;12.44;100.00;100694.28;5015721;28;20112;-77
2023/09/23 00:21:37;;;;;;;;;;;;;;;12.43;100.00;100687.31;5015116;28;20236;-77
2023/09/23 00:24:02;;;;;;;;;;;;;;;12.39;100.00;100690.19;5008032;28;19921;-77
2023/09/23 00:26:28;;;;;;;;;;;;;;;12.38;100.00;100686.69;5007479;28;20143;-77
2023/09/23 00:28:53;;;;;;;;;;;;;;;12.37;100.00;100699.91;5014893;28;19920;-77
2023/09/23 00:31:19;;;;;;;;;;;;;;;12.34;100.00;100703.53;5006366;28;20284;-77
2023/09/23 00:33:44;;;;;;;;;;;;;;;12.33;100.00;100699.19;4995648;28;19918;-77
2023/09/23 00:36:10;;;;;;;;;;;;;;;12.33;100.00;100709.72;4996887;28;20008;-77
2023/09/23 00:38:36;;;;;;;;;;;;;;;12.32;100.00;100700.16;4995971;28;19914;-77
2023/09/23 00:41:08;;;;;;;;;;;;;;;12.31;100.00;100708.94;4995987;28;20113;-77
2023/09/23 00:43:34;;;;;;;;;;;;;;;12.29;100.00;100709.00;4996055;28;19924;-77
2023/09/23 00:46:00;;;;;;;;;;;;;;;12.29;100.00;100713.41;5007711;28;20165;-77
2023/09/23 00:48:25;;;;;;;;;;;;;;;12.27;100.00;100713.50;5015003;28;19920;-77
2023/09/23 00:50:52;;;;;;;;;;;;;;;12.27;100.00;100728.41;5013927;28;19920;-76
2023/09/23 00:53:17;;;;;;;;;;;;;;;12.28;100.00;100735.38;5014666;28;19918;-76
2023/09/23 00:55:52;;;;;;;;;;;;;;;12.29;100.00;100743.16;5005503;28;19920;-76
2023/09/23 00:58:20;;;;;;;;;;;;;;;12.31;100.00;100753.56;5015114;28;19917;-77
2023/09/23 01:00:45;;;;;;;;;;;;;;;12.33;100.00;100750.88;5014248;28;20164;-77
2023/09/23 01:03:11;;;;;;;;;;;;;;;12.32;100.00;100755.28;4997678;28;19921;-77
2023/09/23 01:05:36;;;;;;;;;;;;;;;12.34;100.00;100757.84;5000689;28;19907;-77
2023/09/23 01:08:06;;;;;;;;;;;;;;;12.33;100.00;100753.50;4986068;28;19924;-77
2023/09/23 01:10:31;;;;;;;;;;;;;;;12.35;100.00;100754.28;4995341;28;20009;-77
2023/09/23 01:12:57;;;;;;;;;;;;;;;12.36;100.00;100753.38;4994745;28;19924;-77
2023/09/23 01:15:25;;;;;;;;;;;;;;;12.35;100.00;100751.66;4998682;28;20225;-77
2023/09/23 01:17:53;;;;;;;;;;;;;;;12.37;100.00;100749.78;4998679;28;19917;-77
2023/09/23 01:20:20;;;;;;;;;;;;;;;12.38;100.00;100748.88;4999171;28;19914;-77
2023/09/23 01:22:47;;;;;;;;;;;;;;;12.39;100.00;100753.22;4998942;28;19925;-77
2023/09/23 01:25:12;;;;;;;;;;;;;;;12.39;100.00;100740.94;4999103;28;19914;-77
2023/09/23 01:27:38;;;;;;;;;;;;;;;12.39;100.00;100751.44;4998818;28;19956;-77
2023/09/23 01:30:06;;;;;;;;;;;;;;;12.39;100.00;100747.97;4999273;28;19914;-77
2023/09/23 01:32:45;;;;;;;;;;;;;;;12.41;100.00;100748.75;4999300;28;20190;-77
2023/09/23 01:35:11;;;;;;;;;;;;;;;12.41;100.00;100746.13;4999438;28;20129;-77
2023/09/23 01:37:36;;;;;;;;;;;;;;;12.42;100.00;100743.38;4998426;28;19937;-76
2023/09/23 01:40:03;;;;;;;;;;;;;;;12.42;100.00;100737.28;4999113;28;20257;-77
2023/09/23 01:42:30;;;;;;;;;;;;;;;12.41;100.00;100741.69;4999085;28;20315;-77
2023/09/23 01:44:57;;;;;;;;;;;;;;;12.41;100.00;100751.38;4998612;28;19941;-77
2023/09/23 01:47:22;;;;;;;;;;;;;;;12.42;100.00;100751.25;4999178;28;20270;-77
2023/09/23 01:49:48;;;;;;;;;;;;;;;12.41;100.00;100752.22;4998484;28;19945;-76
2023/09/23 01:52:16;;;;;;;;;;;;;;;12.42;100.00;100758.31;4999267;28;20127;-76
2023/09/23 01:54:44;;;;;;;;;;;;;;;12.40;100.00;100774.13;4998221;28;19929;-77
2023/09/23 01:57:12;;;;;;;;;;;;;;;12.43;100.00;100770.53;4998579;28;19918;-76
2023/09/23 01:59:40;;;;;;;;;;;;;;;12.45;100.00;100772.13;4998550;28;19905;-76
2023/09/23 02:02:09;;;;;;;;;;;;;;;12.46;100.00;100770.34;4998879;28;20268;-76
2023/09/23 02:04:37;;;;;;;;;;;;;;;12.43;100.00;100767.91;4998530;28;20209;-76
2023/09/23 02:07:03;;;;;;;;;;;;;;;12.43;100.00;100773.16;4998353;28;19960;-76
2023/09/23 02:09:29;;;;;;;;;;;;;;;12.41;100.00;100777.63;4998703;28;19914;-76
2023/09/23 02:11:54;;;;;;;;;;;;;;;12.42;100.00;100774.06;4997656;28;19921;-76
2023/09/23 02:14:19;;;;;;;;;;;;;;;12.37;100.00;100762.94;4998091;28;20202;-76
2023/09/23 02:16:47;;;;;;;;;;;;;;;12.33;100.00;100756.97;4997738;28;19917;-76
2023/09/23 02:19:12;;;;;;;;;;;;;;;12.35;100.00;100756.91;4998216;28;20037;-76
2023/09/23 02:21:37;;;;;;;;;;;;;;;12.36;100.00;100766.50;4995268;28;20279;-75
2023/09/23 02:24:03;;;;;;;;;;;;;;;12.32;100.00;100768.41;4998300;28;20234;-76
2023/09/23 02:26:28;;;;;;;;;;;;;;;12.34;100.00;100776.22;4998025;28;19913;-75
2023/09/23 02:28:54;;;;;;;;;;;;;;;12.35;100.00;100783.16;4997666;28;19917;-75
2023/09/23 02:31:19;;;;;;;;;;;;;;;12.35;100.00;100781.41;4998234;28;20209;-76
2023/09/23 02:33:44;;;;;;;;;;;;;;;12.32;100.00;100788.59;4997507;28;19921;-75
2023/09/23 02:36:13;;;;;;;;;;;;;;;12.35;100.00;100778.78;4998629;28;20284;-76
2023/09/23 02:38:39;;;;;;;;;;;;;;;12.37;100.00;100784.81;4997274;28;19918;-75
2023/09/23 02:41:05;;;;;;;;;;;;;;;12.35;100.00;100785.78;4981808;28;19961;-75
2023/09/23 02:43:30;;;;;;;;;;;;;;;12.33;100.00;100795.53;4997734;28;19917;-76
2023/09/23 02:45:56;;;;;;;;;;;;;;;12.33;100.00;100799.00;4997188;28;19925;-76
2023/09/23 02:48:21;;;;;;;;;;;;;;;12.34;100.00;100792.81;4997624;28;19921;-76
2023/09/23 02:50:47;;;;;;;;;;;;;;;12.31;100.00;100787.72;4997791;28;19913;-76
2023/09/23 02:53:12;;;;;;;;;;;;;;;12.33;100.00;100785.84;4997594;28;19921;-75
2023/09/23 02:55:41;;;;;;;;;;;;;;;12.33;100.00;100785.84;4996987;28;19935;-75
2023/09/23 02:58:07;;;;;;;;;;;;;;;12.35;100.00;100785.78;4997425;28;19924;-75
2023/09/23 03:00:34;;;;;;;;;;;;;;;12.35;100.00;100789.28;4997872;28;19913;-76
2023/09/23 03:03:02;;;;;;;;;;;;;;;12.32;100.00;100794.69;4997096;28;20199;-77
2023/09/23 03:05:31;;;;;;;;;;;;;;;12.35;100.00;100809.44;4997544;28;19920;-76
2023/09/23 03:07:59;;;;;;;;;;;;;;;12.35;100.00;100810.28;4994275;28;19917;-76
2023/09/23 03:10:32;;;;;;;;;;;;;;;12.36;100.00;100821.66;4998499;28;19928;-76
2023/09/23 03:13:07;;;;;;;;;;;;;;;12.36;100.00;100829.53;4997264;28;19924;-76
2023/09/23 03:15:52;;;;;;;;;;;;;;;12.40;100.00;100838.94;4998959;28;20233;-77
2023/09/23 03:18:27;;;;;;;;;;;;;;;12.40;100.00;100839.78;5016415;28;19917;-77
2023/09/23 03:20:53;;;;;;;;;;;;;;;12.43;100.00;100844.91;4989352;28;19917;-76
2023/09/23 03:23:20;;;;;;;;;;;;;;;12.42;100.00;100845.81;4997624;28;19957;-77
2023/09/23 03:25:46;;;;;;;;;;;;;;;12.44;100.00;100844.00;4996757;28;19936;-77
2023/09/23 03:28:15;;;;;;;;;;;;;;;12.44;100.00;100841.38;4997455;28;19918;-77
2023/09/23 03:30:43;;;;;;;;;;;;;;;12.46;100.00;100842.13;5013239;28;19940;-77
2023/09/23 03:33:08;;;;;;;;;;;;;;;12.45;100.00;100837.78;5015967;28;19909;-77
2023/09/23 03:35:36;;;;;;;;;;;;;;;12.47;100.00;100832.47;5015961;28;20408;-77
2023/09/23 03:38:01;;;;;;;;;;;;;;;12.46;100.00;100834.25;5012010;28;19921;-77
2023/09/23 03:40:27;;;;;;;;;;;;;;;12.49;100.00;100833.25;4997399;28;19921;-77
2023/09/23 03:42:53;;;;;;;;;;;;;;;12.49;100.00;100841.13;5012296;28;19924;-77
2023/09/23 03:45:18;;;;;;;;;;;;;;;12.46;100.00;100834.25;4989602;28;19976;-77
2023/09/23 03:47:44;;;;;;;;;;;;;;;12.49;100.00;100839.34;5002407;28;20471;-77
2023/09/23 03:50:09;;;;;;;;;;;;;;;12.48;100.00;100835.03;4998751;28;19977;-76
2023/09/23 03:52:35;;;;;;;;;;;;;;;12.50;100.00;100845.47;4996697;28;19917;-77
2023/09/23 03:55:00;;;;;;;;;;;;;;;12.49;100.00;100844.59;4996430;28;19910;-77
2023/09/23 03:57:26;;;;;;;;;;;;;;;12.51;100.00;100843.69;4996958;28;19921;-77
2023/09/23 03:59:51;;;;;;;;;;;;;;;12.52;100.00;100853.28;4996690;28;20261;-77
2023/09/23 04:02:16;;;;;;;;;;;;;;;12.49;100.00;100849.84;5012920;28;20488;-77
2023/09/23 04:04:42;;;;;;;;;;;;;;;12.52;100.00;100862.00;5015018;28;19984;-76
2023/09/23 04:07:08;;;;;;;;;;;;;;;12.53;100.00;100866.31;5015756;28;19952;-76
2023/09/23 04:09:33;;;;;;;;;;;;;;;12.52;100.00;100869.03;4999971;28;19925;-77
2023/09/23 04:12:00;;;;;;;;;;;;;;;12.50;100.00;100869.09;4995762;28;19945;-77
2023/09/23 04:14:26;;;;;;;;;;;;;;;12.51;100.00;100865.53;4996301;28;19928;-76
2023/09/23 04:16:52;;;;;;;;;;;;;;;12.50;100.00;100866.47;5014542;28;19917;-76
2023/09/23 04:19:18;;;;;;;;;;;;;;;12.49;100.00;100870.84;5015243;28;19964;-77
2023/09/23 04:21:43;;;;;;;;;;;;;;;12.51;100.00;100872.56;5006825;28;19913;-77
2023/09/23 04:24:08;;;;;;;;;;;;;;;12.51;100.00;100875.19;5015449;28;20124;-77
2023/09/23 04:26:34;;;;;;;;;;;;;;;12.47;100.00;100880.59;5015080;28;19905;-76
2023/09/23 04:28:59;;;;;;;;;;;;;;;12.46;100.00;100881.53;5014694;28;19972;-77
2023/09/23 04:31:24;;;;;;;;;;;;;;;12.44;100.00;100872.88;5010440;28;19913;-76
2023/09/23 04:33:51;;;;;;;;;;;;;;;12.45;100.00;100885.06;4992836;28;19921;-76
2023/09/23 04:36:16;;;;;;;;;;;;;;;12.44;100.00;100885.16;5015124;28;19913;-76
2023/09/23 04:38:43;;;;;;;;;;;;;;;12.43;100.00;100892.19;5006165;28;19977;-76
2023/09/23 04:41:08;;;;;;;;;;;;;;;12.44;100.00;100887.78;5012816;28;19940;-76
2023/09/23 04:43:34;;;;;;;;;;;;;;;12.42;100.00;100893.09;5002539;28;19917;-76
2023/09/23 04:45:59;;;;;;;;;;;;;;;12.43;100.00;100900.06;4995635;28;19920;-77
2023/09/23 04:48:25;;;;;;;;;;;;;;;12.43;100.00;100912.34;5005881;28;19984;-76
2023/09/23 04:50:52;;;;;;;;;;;;;;;12.46;100.00;100906.94;5014347;28;19959;-77
2023/09/23 04:53:17;;;;;;;;;;;;;;;12.43;100.00;100907.94;5014277;28;19959;-76
2023/09/23 04:55:45;;;;;;;;;;;;;;;12.43;100.00;100910.56;5003180;28;19913;-76
2023/09/23 04:58:13;;;;;;;;;;;;;;;12.45;100.00;100918.38;4995884;28;19973;-76
2023/09/23 05:00:38;;;;;;;;;;;;;;;12.45;100.00;100926.25;5011243;28;20165;-76
2023/09/23 05:03:05;;;;;;;;;;;;;;;12.46;100.00;100931.44;4995711;28;19917;-76
2023/09/23 05:05:30;;;;;;;;;;;;;;;12.46;100.00;100930.56;4995748;28;19913;-76
2023/09/23 05:07:55;;;;;;;;;;;;;;;12.45;100.00;100929.72;4995136;28;19924;-76
2023/09/23 05:10:23;;;;;;;;;;;;;;;12.45;100.00;100934.97;5002314;28;19913;-76
2023/09/23 05:12:48;;;;;;;;;;;;;;;12.44;100.00;100933.28;4996253;28;20213;-76
2023/09/23 05:15:14;;;;;;;;;;;;;;;12.45;100.00;100934.97;5000164;28;20204;-77
2023/09/23 05:17:40;;;;;;;;;;;;;;;12.48;100.00;100937.47;5014109;28;19914;-77
2023/09/23 05:20:14;;;;;;;;;;;;;;;12.49;100.00;100935.69;5014444;28;19924;-77
2023/09/23 05:22:39;;;;;;;;;;;;;;;12.45;100.00;100942.00;4997727;28;19920;-77
2023/09/23 05:25:07;;;;;;;;;;;;;;;12.44;100.00;100943.81;5005640;28;19917;-76
2023/09/23 05:27:32;;;;;;;;;;;;;;;12.44;100.00;100946.44;5006610;28;19914;-76
2023/09/23 05:29:57;;;;;;;;;;;;;;;12.46;100.00;100947.19;5013928;28;19917;-76
2023/09/23 05:32:23;;;;;;;;;;;;;;;12.46;100.00;100956.84;5014903;28;19913;-77
2023/09/23 05:34:51;;;;;;;;;;;;;;;12.47;100.00;100959.41;5013816;28;19929;-76
2023/09/23 05:37:16;;;;;;;;;;;;;;;12.48;100.00;100966.38;5014203;28;20101;-76
2023/09/23 05:39:45;;;;;;;;;;;;;;;12.52;100.00;100971.50;5013762;28;19929;-76
2023/09/23 05:42:11;;;;;;;;;;;;;;;12.49;100.00;100973.31;5006203;28;19920;-77
2023/09/23 05:44:36;;;;;;;;;;;;;;;12.50;100.00;100979.44;4996778;28;19917;-77
2023/09/23 05:47:02;;;;;;;;;;;;;;;12.52;100.00;100989.88;5014237;28;19922;-76
2023/09/23 05:49:27;;;;;;;;;;;;;;;12.52;100.00;100995.13;4979519;28;20212;-77
2023/09/23 05:51:54;;;;;;;;;;;;;;;12.52;100.00;100995.13;4994685;28;19970;-76
2023/09/23 05:54:20;;;;;;;;;;;;;;;12.54;100.00;100998.53;5010519;28;19921;-77
2023/09/23 05:56:45;;;;;;;;;;;;;;;12.53;100.00;100996.81;4997153;28;19968;-76
2023/09/23 05:59:10;;;;;;;;;;;;;;;12.56;100.00;101002.78;5014310;28;19924;-77
2023/09/23 06:01:38;;;;;;;;;;;;;;;12.59;100.00;101007.91;5017216;28;19913;-76
2023/09/23 06:04:05;;;;;;;;;;;;;;;12.61;100.00;101013.09;5017643;28;19987;-77
2023/09/23 06:06:30;;;;;;;;;;;;;;;12.64;100.00;101005.03;5011159;28;19921;-77
2023/09/23 06:08:57;;;;;;;;;;;;;;;12.65;100.00;101012.00;5016000;28;19988;-77
2023/09/23 06:11:22;;;;;;;;;;;;;;;12.65;100.00;101018.13;5017916;28;19922;-77
2023/09/23 06:13:47;;;;;;;;;;;;;;;12.68;100.00;101025.03;5016779;28;20133;-76
2023/09/23 06:16:12;;;;;;;;;;;;;;;12.69;100.00;101029.34;5017721;28;19913;-76
2023/09/23 06:18:38;;;;;;;;;;;;;;;12.69;100.00;101031.97;5011211;28;19925;-77
2023/09/23 06:21:05;;;;;;;;;;;;;;;12.70;100.00;101038.06;4999734;28;19957;-77
2023/09/23 06:23:31;;;;;;;;;;;;;;;12.70;100.00;101038.94;5002035;28;20180;-77
2023/09/23 06:25:57;;;;;;;;;;;;;;;12.72;100.00;101044.97;4997967;28;19913;-77
2023/09/23 06:28:23;;;;;;;;;;;;;;;12.72;100.00;101042.34;5001116;28;19925;-77
2023/09/23 06:30:48;;;;;;;;;;;;;;;12.73;100.00;101044.03;5017259;28;19917;-76
2023/09/23 06:33:14;;;;;;;;;;;;;;;12.75;100.00;101055.34;5016542;28;19913;-77
2023/09/23 06:35:39;;;;;;;;;;;;;;;12.76;100.00;101051.78;4997532;28;20152;-77
2023/09/23 06:38:04;;;;;;;;;;;;;;;12.78;100.00;101057.81;5013255;28;19984;-77
2023/09/23 06:40:29;;;;;;;;;;;;;;;12.80;100.00;101049.84;5000298;28;19918;-76
2023/09/23 06:42:55;;;;;;;;;;;;;;;12.80;100.00;101058.59;4997774;28;19913;-77
2023/09/23 06:45:20;;;;;;;;;;;;;;;12.82;100.00;101061.16;4998262;28;19921;-77
2023/09/23 06:47:45;;;;;;;;;;;;;;;12.82;100.00;101067.28;5005710;28;19914;-76
2023/09/23 06:50:10;;;;;;;;;;;;;;;12.82;100.00;101072.53;5006232;28;19913;-76
2023/09/23 06:52:36;;;;;;;;;;;;;;;12.83;100.00;101073.38;4998203;28;20230;-77
2023/09/23 06:55:01;;;;;;;;;;;;;;;12.84;100.00;101072.44;5009575;28;19921;-77
2023/09/23 06:57:26;;;;;;;;;;;;;;;12.85;100.00;101075.00;5016894;28;19920;-77
2023/09/23 06:59:52;;;;;;;;;;;;;;;12.86;100.00;101078.47;4998681;28;19918;-77
2023/09/23 07:02:17;;;;;;;;;;;;;;;12.86;100.00;101078.47;4998030;28;19989;-77
2023/09/23 07:04:42;;;;;;;;;;;;;;;12.85;100.00;101082.88;4996214;28;19929;-77
2023/09/23 07:07:07;;;;;;;;;;;;;;;12.89;100.00;101086.22;4998269;28;19956;-77
2023/09/23 07:09:33;;;;;;;;;;;;;;;12.90;100.00;101090.56;4997661;28;20279;-77
2023/09/23 07:11:59;;;;;;;;;;;;;;;12.91;100.00;101094.88;4996979;28;19918;-77
2023/09/23 07:14:24;;;;;;;;;;;;;;;12.93;100.00;101098.28;4997564;28;19996;-77
2023/09/23 07:16:50;;;;;;;;;;;;;;;12.94;100.00;101102.66;4996936;28;20252;-77
2023/09/23 07:19:15;;;;;;;;;;;;;;;12.96;100.00;101113.09;4997338;28;19933;-76
2023/09/23 07:21:40;;;;;;;;;;;;;;;12.96;100.00;101115.72;4979265;28;20090;-77
2023/09/23 07:24:05;;;;;;;;;;;;;;;12.96;100.00;101121.81;4997630;28;20297;-77
2023/09/23 07:26:31;;;;;;;;;;;;;;;12.99;100.00;101119.06;5007996;28;19944;-77
2023/09/23 07:28:56;;;;;;;;;;;;;;;13.02;100.00;101124.19;5015860;28;19924;-77
2023/09/23 07:31:22;;;;;;;;;;;;;;;13.05;100.00;101128.44;4998363;28;20186;-77
2023/09/23 07:33:47;;;;;;;;;;;;;;;13.07;100.00;101129.22;5004082;28;19924;-76
2023/09/23 07:36:13;;;;;;;;;;;;;;;13.07;100.00;101130.06;4997316;28;19913;-76
2023/09/23 07:38:41;;;;;;;;;;;;;;;13.09;100.00;101135.25;4996531;28;19936;-76
2023/09/23 07:41:06;;;;;;;;;;;;;;;13.12;100.00;101142.16;5004306;28;20205;-76
2023/09/23 07:43:32;;;;;;;;;;;;;;;13.13;100.00;101143.84;5015774;28;19920;-77
2023/09/23 07:45:57;;;;;;;;;;;;;;;13.16;100.00;101149.81;4996466;28;20124;-77
2023/09/23 07:48:23;;;;;;;;;;;;;;;13.18;100.00;101161.13;5003436;28;19920;-77
2023/09/23 07:50:48;;;;;;;;;;;;;;;13.21;100.00;101163.63;5014896;28;19924;-76
2023/09/23 07:53:13;;;;;;;;;;;;;;;13.24;100.00;101166.13;5015762;28;19913;-76
2023/09/23 07:55:38;;;;;;;;;;;;;;;13.28;100.00;101174.72;5015500;28;20261;-76
2023/09/23 07:58:04;;;;;;;;;;;;;;;13.31;100.00;101181.63;5007688;28;20136;-77
2023/09/23 08:00:29;;;;;;;;;;;;;;;13.34;100.00;101178.88;5015873;28;19959;-77
2023/09/23 08:02:55;;;;;;;;;;;;;;;13.37;100.00;101190.09;5006939;28;20153;-76
2023/09/23 08:05:23;;;;;;;;;;;;;;;13.40;100.00;101194.34;4996670;28;20140;-77
2023/09/23 08:07:49;;;;;;;;;;;;;;;13.42;100.00;101188.09;4996252;28;19920;-76
2023/09/23 08:10:15;;;;;;;;;;;;;;;13.46;100.00;101195.84;4996802;28;19918;-76
2023/09/23 08:12:41;;;;;;;;;;;;;;;13.50;100.00;101200.03;4995895;28;20292;-76
2023/09/23 08:15:08;;;;;;;;;;;;;;;13.53;100.00;101211.25;4996700;28;19917;-76
2023/09/23 08:17:33;;;;;;;;;;;;;;;13.55;100.00;101212.06;5015375;28;19960;-76
2023/09/23 08:19:59;;;;;;;;;;;;;;;13.58;100.00;101216.31;5015424;28;19913;-76
2023/09/23 08:22:24;;;;;;;;;;;;;;;13.61;100.00;101217.03;5015133;28;20136;-76
2023/09/23 08:24:50;;;;;;;;;;;;;;;13.65;100.00;101219.53;5015426;28;19913;-76
2023/09/23 08:27:15;;;;;;;;;;;;;;;13.67;100.00;101228.19;5015432;28;20167;-77
2023/09/23 08:29:40;;;;;;;;;;;;;;;13.66;100.00;101229.09;5013236;28;19920;-77
2023/09/23 08:32:05;;;;;;;;;;;;;;;13.67;100.00;101239.56;5015070;28;19924;-76
2023/09/23 08:34:31;;;;;;;;;;;;;;;13.70;100.00;101238.56;5015362;28;19923;-76
2023/09/23 08:36:57;;;;;;;;;;;;;;;13.73;100.00;101243.69;5014455;28;19949;-76
2023/09/23 08:39:22;;;;;;;;;;;;;;;13.76;100.00;101254.91;4998132;28;19905;-76
2023/09/23 08:41:51;;;;;;;;;;;;;;;13.81;100.00;101259.97;4995336;28;20101;-77
2023/09/23 08:44:18;;;;;;;;;;;;;;;13.82;100.00;101254.66;4996049;28;19914;-76
2023/09/23 08:46:46;;;;;;;;;;;;;;;13.85;100.00;101258.91;4995668;28;19918;-76
2023/09/23 08:49:12;;;;;;;;;;;;;;;13.85;100.00;101264.16;5002225;28;20156;-77
2023/09/23 08:51:37;;;;;;;;;;;;;;;13.86;100.00;101272.91;5005044;28;19952;-76
2023/09/23 08:54:03;;;;;;;;;;;;;;;13.85;100.00;101273.84;4995778;28;19922;-77
2023/09/23 08:56:28;;;;;;;;;;;;;;;13.84;100.00;101291.41;4995611;28;19920;-76
2023/09/23 08:58:53;;;;;;;;;;;;;;;13.86;100.00;101291.34;4995263;28;20256;-76
2023/09/23 09:01:18;;;;;;;;;;;;;;;13.87;100.00;101291.25;4995916;28;19920;-76
2023/09/23 09:03:45;;;;;;;;;;;;;;;13.89;100.00;101289.41;5011527;28;19921;-77
2023/09/23 09:06:17;;;;;;;;;;;;;;;13.92;100.00;101294.53;5014471;28;19920;-76
2023/09/23 09:08:42;;;;;;;;;;;;;;;13.97;100.00;101302.19;5014568;28;19924;-76
2023/09/23 09:11:09;;;;;;;;;;;;;;;13.97;100.00;101302.19;5013931;28;20119;-77
2023/09/23 09:13:35;;;;;;;;;;;;;;;13.97;100.00;101308.34;5014476;28;19917;-77
2023/09/23 09:16:03;;;;;;;;;;;;;;;13.98;100.00;101306.56;5013774;28;20162;-77
2023/09/23 09:18:29;;;;;;;;;;;;;;;13.98;100.00;101309.19;5002685;28;19989;-77
2023/09/23 09:20:55;;;;;;;;;;;;;;;14.00;100.00;101317.88;4995203;28;19918;-76
2023/09/23 09:23:20;;;;;;;;;;;;;;;13.97;100.00;101318.88;4997745;28;19948;-77
2023/09/23 09:25:47;;;;;;;;;;;;;;;13.97;100.00;101315.38;5013824;28;19975;-76
2023/09/23 09:28:12;;;;;;;;;;;;;;;13.97;100.00;101325.91;5014290;28;19913;-76
2023/09/23 09:30:38;;;;;;;;;;;;;;;13.98;100.00;101328.47;5013965;28;20254;-76
2023/09/23 09:33:07;;;;;;;;;;;;;;;13.99;100.00;101340.72;5014687;28;19917;-76
2023/09/23 09:35:33;;;;;;;;;;;;;;;13.97;100.00;101339.94;4997970;28;19992;-76
2023/09/23 09:38:05;;;;;;;;;;;;;;;13.99;100.00;101338.09;4998959;28;19909;-76
2023/09/23 09:40:31;;;;;;;;;;;;;;;13.96;100.00;101345.28;4999425;28;19964;-76
2023/09/23 09:42:59;;;;;;;;;;;;;;;13.98;100.00;101353.97;4998444;28;20220;-76
2023/09/23 09:45:26;;;;;;;;;;;;;;;13.99;100.00;101363.59;4999289;28;19924;-76
2023/09/23 09:47:53;;;;;;;;;;;;;;;13.99;100.00;101353.88;4998866;28;19921;-76
2023/09/23 09:50:18;;;;;;;;;;;;;;;13.96;100.00;101359.28;4999150;28;19961;-76
2023/09/23 09:52:44;;;;;;;;;;;;;;;14.00;100.00;101360.84;4998638;28;19914;-76
2023/09/23 09:55:10;;;;;;;;;;;;;;;14.05;100.00;101362.44;5006480;28;19921;-76
2023/09/23 09:57:35;;;;;;;;;;;;;;;14.09;100.00;101356.09;5013752;28;19956;-76
2023/09/23 10:00:06;;;;;;;;;;;;;;;14.15;100.00;101354.03;5007715;28;20098;-76
2023/09/23 10:02:32;;;;;;;;;;;;;;;14.22;100.00;101365.09;4999075;28;20209;-76
2023/09/23 10:05:01;;;;;;;;;;;;;;;14.29;100.00;101360.41;5006917;28;19962;-76
2023/09/23 10:07:46;;;;;;;;;;;;;;;14.37;100.00;101366.16;4992095;28;20160;-76
2023/09/23 10:10:13;;;;;;;;;;;;;;;14.41;100.00;101365.09;5017070;28;19992;-76
2023/09/23 10:12:47;;;;;;;;;;;;;;;14.42;100.00;101377.31;5011843;28;19965;-76
2023/09/23 10:15:12;;;;;;;;;;;;;;;14.46;100.00;101378.91;5007980;28;20192;-76
2023/09/23 10:17:41;;;;;;;;;;;;;;;14.46;100.00;101381.53;5017284;28;19920;-76
2023/09/23 10:20:15;;;;;;;;;;;;;;;14.46;100.00;101385.94;5017205;28;20287;-76
2023/09/23 10:22:49;;;;;;;;;;;;;;;14.44;100.00;101393.06;4994610;28;20212;-76
2023/09/23 10:25:15;;;;;;;;;;;;;;;14.43;100.00;101397.50;5001091;28;19918;-77
2023/09/23 10:27:53;;;;;;;;;;;;;;;14.43;100.00;101394.00;4998032;28;19952;-76
2023/09/23 10:30:26;;;;;;;;;;;;;;;14.41;100.00;101402.00;5006604;28;20113;-76
2023/09/23 10:32:51;;;;;;;;;;;;;;;14.38;100.00;101410.88;4997770;28;20320;-76
2023/09/23 10:35:22;;;;;;;;;;;;;;;14.34;100.00;101411.09;4997869;28;19948;-76
2023/09/23 10:37:47;;;;;;;;;;;;;;;14.31;100.00;101420.00;4990764;28;19913;-76
2023/09/23 10:40:13;;;;;;;;;;;;;;;14.31;100.00;101420.00;5003889;28;19922;-76
2023/09/23 10:42:41;;;;;;;;;;;;;;;14.30;100.00;101423.56;4997622;28;19945;-76
2023/09/23 10:45:08;;;;;;;;;;;;;;;14.31;100.00;101427.91;5002052;28;19914;-76
2023/09/23 10:47:35;;;;;;;;;;;;;;;14.26;100.00;101429.03;5001517;28;19913;-76
2023/09/23 10:50:01;;;;;;;;;;;;;;;14.30;100.00;101433.25;4997972;28;19905;-76
2023/09/23 10:52:26;;;;;;;;;;;;;;;14.32;100.00;101441.94;5011622;28;19919;-77
2023/09/23 10:54:53;;;;;;;;;;;;;;;14.32;100.00;101437.53;4999901;28;19918;-76
2023/09/23 10:57:18;;;;;;;;;;;;;;;14.35;100.00;101444.41;4997820;28;19953;-76
2023/09/23 10:59:44;;;;;;;;;;;;;;;14.36;100.00;101444.34;4997343;28;19920;-76
2023/09/23 11:02:11;;;;;;;;;;;;;;;14.39;100.00;101453.91;4997769;28;19917;-76
2023/09/23 11:04:36;;;;;;;;;;;;;;;14.38;100.00;101450.41;5010310;28;20094;-76
2023/09/23 11:07:02;;;;;;;;;;;;;;;14.40;100.00;101463.50;5016510;28;19928;-76
2023/09/23 11:09:28;;;;;;;;;;;;;;;14.40;100.00;101459.09;5016604;28;19913;-76
2023/09/23 11:11:54;;;;;;;;;;;;;;;14.43;100.00;101465.16;5016061;28;19928;-76
2023/09/23 11:14:21;;;;;;;;;;;;;;;14.43;100.00;101484.44;5016570;28;20168;-76
2023/09/23 11:16:46;;;;;;;;;;;;;;;14.44;100.00;101486.16;5015788;28;19975;-76
2023/09/23 11:19:11;;;;;;;;;;;;;;;14.45;100.00;101476.47;5001215;28;20105;-76
2023/09/23 11:21:46;;;;;;;;;;;;;;;14.47;100.00;101482.53;4997126;28;19937;-75
2023/09/23 11:24:12;;;;;;;;;;;;;;;14.50;100.00;101488.50;4997441;28;20235;-76
2023/09/23 11:26:38;;;;;;;;;;;;;;;14.53;100.00;101492.78;4996856;28;20124;-75
2023/09/23 11:29:03;;;;;;;;;;;;;;;14.54;100.00;101500.63;4997432;28;20233;-76
2023/09/23 11:31:28;;;;;;;;;;;;;;;14.55;100.00;101501.47;5013407;28;19936;-76
2023/09/23 11:33:54;;;;;;;;;;;;;;;14.55;100.00;101496.19;5007751;28;19917;-76
2023/09/23 11:36:19;;;;;;;;;;;;;;;14.54;100.00;101516.44;5016413;28;19939;-76
2023/09/23 11:38:44;;;;;;;;;;;;;;;14.52;100.00;101509.53;5015792;28;19920;-76
2023/09/23 11:41:09;;;;;;;;;;;;;;;14.47;100.00;101508.88;5016290;28;19917;-77
2023/09/23 11:43:35;;;;;;;;;;;;;;;14.43;100.00;101516.06;5009366;28;19914;-76
2023/09/23 11:46:00;;;;;;;;;;;;;;;14.43;100.00;101520.50;4996860;28;19917;-76
2023/09/23 11:48:25;;;;;;;;;;;;;;;14.42;100.00;101516.16;4996979;28;20304;-76
2023/09/23 11:50:50;;;;;;;;;;;;;;;14.40;100.00;101522.31;4996637;28;19917;-76
2023/09/23 11:53:18;;;;;;;;;;;;;;;14.40;100.00;101529.38;4999653;28;19921;-76
2023/09/23 11:55:44;;;;;;;;;;;;;;;14.40;100.00;101532.03;5001342;28;19948;-76
2023/09/23 11:58:09;;;;;;;;;;;;;;;14.39;100.00;101539.06;4978573;28;19914;-76
2023/09/23 12:00:35;;;;;;;;;;;;;;;14.41;100.00;101541.66;5008484;28;20156;-76
2023/09/23 12:03:00;;;;;;;;;;;;;;;14.42;100.00;101545.13;5014659;28;19913;-76
2023/09/23 12:05:28;;;;;;;;;;;;;;;14.44;100.00;101551.19;5015782;28;20275;-76
2023/09/23 12:07:54;;;;;;;;;;;;;;;14.46;100.00;101554.59;5014764;28;19927;-76
2023/09/23 12:10:19;;;;;;;;;;;;;;;14.50;100.00;101556.19;5015361;28;19940;-76
2023/09/23 12:12:45;;;;;;;;;;;;;;;14.52;100.00;101552.56;5014694;28;20159;-76
2023/09/23 12:15:10;;;;;;;;;;;;;;;14.57;100.00;101560.22;5015206;28;20163;-76
2023/09/23 12:17:36;;;;;;;;;;;;;;;14.59;100.00;101554.00;5014905;28;19940;-76
2023/09/23 12:20:02;;;;;;;;;;;;;;;14.61;100.00;101556.59;5015494;28;19940;-76
2023/09/23 12:22:27;;;;;;;;;;;;;;;14.62;100.00;101558.28;5015381;28;19917;-76
2023/09/23 12:24:52;;;;;;;;;;;;;;;14.65;100.00;101560.78;4995817;28;19921;-76